Aérodrome :
LOGIN :

S'inscrire | Disclaimer

   EN    FR    IT 

 










Légende :    VFR   VFR Marginal   IFR   IFR Intensif   IFR Très Intensif
Visi : 
Plafond : 
>= 8 km
>= 3000ft
5 à 8 km
1000 à 3000 ft
1500m à 5 km
500 à 1000 ft
800 à 1500m
200 à 500 ft
< 800m
< 200 ft
Symboles :   Orages  Brouillard  Fortes neiges  Fortes précipitations  Vent > 20 kt
SIGMETs :   Divers  Orages  Givrage  Turbulence  Onde Orograph.  Cendres Volcan.






- Altitude de l'aérodrome : 3 ft
- Code IATA : LWR


EHLW - Leuuwarden Air Base

DERNIER METAR :
  • 230818Z AUTO 24008KT 180V270 9999 FEW011 SCT013 BKN065 20/17 Q1013 BLU TEMPO SCT010 BKN018

METARs EXPIRÉS :
  • 230755Z AUTO 23009KT 190V260 9999 BKN010 BKN015CB OVC018 20/17 Q1013 GRN TEMPO SCT010 BKN018
  • 230730Z AUTO 23008KT 190V260 9999 SCT010 BKN012 BKN019 19/17 Q1013 GRN TEMPO SCT010 BKN018
  • 230725Z AUTO 23008KT 200V260 9999 SCT010 SCT013 OVC017 19/17 Q1013 WHT TEMPO SCT008 BKN012
  • 230700Z AUTO 22009KT 9999 FEW013 OVC016 19/17 Q1014 WHT TEMPO SCT008 BKN012
  • 230655Z AUTO 23008KT 180V260 9999 FEW010 SCT012 OVC015 19/17 Q1013 WHT TEMPO SCT008 BKN012
  • 230637Z AUTO 23008KT 180V260 9999 SCT010 OVC013 19/17 Q1013 GRN TEMPO SCT008 BKN012
  • 230625Z AUTO 23009KT 190V260 9999 SCT008 SCT009 BKN011 19/17 Q1013 GRN TEMPO SCT008 BKN012
  • 230617Z AUTO 23008KT 190V250 9999 FEW008 SCT009 BKN011 19/17 Q1013 GRN TEMPO SCT008 BKN012
  • 230555Z AUTO 22008KT 180V250 9999 FEW009 BKN011 BKN013 18/17 Q1013 GRN TEMPO SCT012 BKN015
  • 230546Z AUTO 22007KT 170V230 9999 BKN010 BKN013 OVC015 18/17 Q1013 GRN TEMPO SCT012 BKN015
  • 230525Z AUTO 22007KT 9999 SCT012 BKN014 BKN041 18/17 Q1013 GRN
  • 230508Z AUTO 22007KT 9999 SCT012 BKN015 OVC041 18/17 Q1013 WHT
  • 230455Z AUTO 22008KT 9999 BKN014 OVC016 18/17 Q1013 GRN
  • 230435Z AUTO 22008KT 9999 SCT013 OVC015 18/17 Q1013 WHT
  • 230425Z AUTO 22008KT 180V240 9999 SCT015 BKN037 OVC045 18/16 Q1013 BLU
  • 230355Z AUTO 23008KT 190V250 9999 FEW014 OVC016 18/17 Q1013 WHT
  • 230340Z AUTO 23007KT 9999 SCT013 OVC016 17/16 Q1013 WHT

TAF TAF EHLW
Valide du 23 à 05h jusqu'au 23 à 17h UTC


230446Z 2305/2317 22012KT 9999 SCT018 BKN035
TEMPO 2305/2309 FEW008 SCT012 BKN015
PROB40
TEMPO 2305/2312 4000 SHRA FEW008 BKN012 SCT015CB
BECMG 2312/2314 32008KT



MET'MAP, la Météo Aéronautique d'un coup d'oeil ! - Copyright ORBIFLY Décembre 2007 - Disclaimer

ORBIFLY MET'MAP TEAM :

Programmation & Développement : Alexandra Zaïnal
Sur une idée originale de : Baudouin d'Aumeries
Soutien technique & logistique : Manuel Goepfert
Assistance : Marc-Olivier Méhu




SOURCES & CREDITS :

   NOAA